Time;durP1;ratioP1;P1;durP2;ratioP2;P2;SDS_P1;SDS_P2;PMS_P1;PMS_P2;Temp;Humidity;BMP_temperature;BMP_pressure;BME280_temperature;BME280_humidity;BME280_pressure;Samples;Min_cycle;Max_cycle;Signal;HPM_P1;HPM_P2
2022/12/27 00:01:32;;;;;;;8.75;1.10;;;;;;;;;;5076819;28;20104;-83
2022/12/27 00:03:57;;;;;;;4.85;1.10;;;;;;;;;;5057973;28;20025;-84
2022/12/27 00:06:24;;;;;;;5.03;0.85;;;;;;;;;;5076112;28;20024;-82
2022/12/27 00:08:50;;;;;;;9.32;1.42;;;;;;;;;;5075910;28;20078;-82
2022/12/27 00:11:19;;;;;;;3.90;1.02;;;;;;;;;;5058872;28;20017;-83
2022/12/27 00:13:45;;;;;;;4.70;1.30;;;;;;;;;;5080667;28;20029;-83
2022/12/27 00:16:12;;;;;;;2.65;0.82;;;;;;;;;;5080498;28;20032;-83
2022/12/27 00:18:39;;;;;;;5.00;0.90;;;;;;;;;;5062443;28;20090;-81
2022/12/27 00:21:05;;;;;;;4.97;1.20;;;;;;;;;;5079938;28;20039;-82
2022/12/27 00:23:33;;;;;;;4.85;1.10;;;;;;;;;;5078929;28;20048;-83
2022/12/27 00:26:00;;;;;;;7.43;1.30;;;;;;;;;;5080164;28;20072;-84
2022/12/27 00:28:25;;;;;;;5.72;1.10;;;;;;;;;;5079408;28;20024;-83
2022/12/27 00:30:54;;;;;;;10.57;1.30;;;;;;;;;;5080219;28;20081;-83
2022/12/27 00:33:19;;;;;;;8.35;1.10;;;;;;;;;;5062087;28;20016;-81
2022/12/27 00:35:44;;;;;;;7.07;1.40;;;;;;;;;;5061925;28;20065;-82
2022/12/27 00:38:09;;;;;;;7.90;1.23;;;;;;;;;;5061880;28;20028;-82
2022/12/27 00:40:38;;;;;;;4.13;1.00;;;;;;;;;;5080003;28;20264;-82
2022/12/27 00:43:03;;;;;;;6.13;1.08;;;;;;;;;;5079088;28;20281;-82
2022/12/27 00:45:28;;;;;;;2.93;1.03;;;;;;;;;;5061743;28;20047;-82
2022/12/27 00:47:54;;;;;;;5.18;0.93;;;;;;;;;;5079286;28;20257;-82
2022/12/27 00:50:19;;;;;;;8.23;1.10;;;;;;;;;;5060691;28;20115;-82
2022/12/27 00:52:44;;;;;;;2.58;0.85;;;;;;;;;;5078732;28;20391;-83
2022/12/27 00:55:10;;;;;;;4.47;1.02;;;;;;;;;;5077430;28;20024;-83
2022/12/27 00:57:35;;;;;;;6.40;1.13;;;;;;;;;;5076592;28;20020;-83
2022/12/27 01:00:01;;;;;;;5.87;1.17;;;;;;;;;;5076444;28;20500;-82
2022/12/27 01:02:27;;;;;;;5.68;1.15;;;;;;;;;;5077738;28;20739;-83
2022/12/27 01:04:53;;;;;;;6.90;0.93;;;;;;;;;;5077960;28;20490;-84
2022/12/27 01:07:19;;;;;;;3.50;1.15;;;;;;;;;;5078140;28;20350;-82
2022/12/27 01:09:44;;;;;;;5.28;1.10;;;;;;;;;;5060509;28;20028;-83
2022/12/27 01:12:09;;;;;;;6.00;1.08;;;;;;;;;;5078720;28;20106;-83
2022/12/27 01:14:34;;;;;;;8.47;1.43;;;;;;;;;;5078284;28;20032;-83
2022/12/27 01:17:00;;;;;;;3.65;0.95;;;;;;;;;;5077953;28;20257;-83
2022/12/27 01:19:25;;;;;;;4.90;1.20;;;;;;;;;;5060028;28;20072;-82
2022/12/27 01:21:50;;;;;;;8.43;1.40;;;;;;;;;;5059889;28;20063;-82
2022/12/27 01:24:15;;;;;;;4.30;0.87;;;;;;;;;;5076014;28;20334;-82
2022/12/27 01:26:40;;;;;;;13.35;1.40;;;;;;;;;;5058647;28;20269;-83
2022/12/27 01:29:06;;;;;;;6.63;1.00;;;;;;;;;;5076630;28;20028;-82
2022/12/27 01:31:31;;;;;;;3.03;0.90;;;;;;;;;;5059187;28;20253;-83
2022/12/27 01:33:58;;;;;;;7.65;1.20;;;;;;;;;;5058220;28;20254;-83
2022/12/27 01:36:25;;;;;;;6.38;1.40;;;;;;;;;;5058822;28;20029;-81
2022/12/27 01:38:50;;;;;;;8.52;1.13;;;;;;;;;;5076498;28;20107;-81
2022/12/27 01:44:32;;;;;;;5.95;1.10;;;;;;;;;;5076299;28;20116;-83
2022/12/27 01:46:57;;;;;;;13.27;1.35;;;;;;;;;;5076303;28;20079;-82
2022/12/27 01:49:22;;;;;;;6.45;0.82;;;;;;;;;;5075987;28;20386;-81
2022/12/27 01:51:47;;;;;;;8.65;1.20;;;;;;;;;;5059104;28;20056;-80
2022/12/27 01:54:13;;;;;;;5.28;0.88;;;;;;;;;;5076183;28;20032;-82
2022/12/27 01:56:38;;;;;;;7.50;0.93;;;;;;;;;;5058767;28;20546;-82
2022/12/27 01:59:07;;;;;;;9.93;1.10;;;;;;;;;;5076657;28;20031;-81
2022/12/27 02:01:38;;;;;;;3.78;0.80;;;;;;;;;;5077151;28;20032;-81
2022/12/27 02:04:07;;;;;;;9.57;1.23;;;;;;;;;;5058558;28;20035;-83
2022/12/27 02:06:35;;;;;;;3.10;0.95;;;;;;;;;;5077431;28;20062;-83
2022/12/27 02:09:25;;;;;;;6.28;0.80;;;;;;;;;;5076415;28;20024;-81
2022/12/27 02:11:55;;;;;;;6.85;1.00;;;;;;;;;;5076005;28;20121;-81
2022/12/27 02:14:31;;;;;;;11.50;1.58;;;;;;;;;;5057958;28;20025;-82
2022/12/27 02:16:59;;;;;;;5.07;0.95;;;;;;;;;;5058230;28;20032;-82
2022/12/27 02:19:41;;;;;;;3.42;0.55;;;;;;;;;;5075532;28;20098;-82
2022/12/27 02:22:27;;;;;;;5.25;0.93;;;;;;;;;;5058394;28;20082;-82
2022/12/27 02:25:10;;;;;;;5.68;1.05;;;;;;;;;;5045539;28;20131;-82
2022/12/27 02:27:45;;;;;;;6.63;1.10;;;;;;;;;;5059016;28;20020;-82
2022/12/27 02:30:12;;;;;;;3.92;0.93;;;;;;;;;;5077068;28;20453;-79
2022/12/27 02:33:03;;;;;;;3.70;0.80;;;;;;;;;;5059089;28;20056;-82
2022/12/27 02:35:34;;;;;;;7.53;1.15;;;;;;;;;;5077254;28;20031;-82
2022/12/27 02:38:23;;;;;;;8.90;0.98;;;;;;;;;;5076916;28;20029;-81
2022/12/27 02:59:09;;;;;;;5.43;0.80;;;;;;;;;;5039083;28;20104;-82
2022/12/27 03:05:21;;;;;;;3.75;1.00;;;;;;;;;;5076808;28;20039;-81
2022/12/27 03:08:07;;;;;;;3.15;0.80;;;;;;;;;;5076790;28;20508;-81
2022/12/27 03:16:30;;;;;;;2.60;0.93;;;;;;;;;;5077176;28;20086;-80
2022/12/27 03:25:26;;;;;;;10.20;1.00;;;;;;;;;;5076894;28;20055;-80
2022/12/27 03:27:33;;;;;;;4.40;0.95;;;;;;;;;;5077158;28;20058;-80
2022/12/27 03:33:13;;;;;;;2.92;1.00;;;;;;;;;;5077027;28;20094;-80
2022/12/27 03:38:53;;;;;;;2.35;0.70;;;;;;;;;;5077881;28;20043;-82
2022/12/27 03:43:09;;;;;;;5.22;0.85;;;;;;;;;;5076977;28;20031;-82
2022/12/27 03:44:28;;;;;;;3.13;0.80;;;;;;;;;;5076800;28;20028;-80
2022/12/27 03:46:59;;;;;;;4.88;0.90;;;;;;;;;;5076273;28;20043;-81
2022/12/27 03:49:33;;;;;;;4.60;0.95;;;;;;;;;;5077017;28;20055;-80
2022/12/27 03:52:10;;;;;;;4.53;0.85;;;;;;;;;;5077057;28;20059;-81
2022/12/27 03:54:38;;;;;;;1.00;0.63;;;;;;;;;;5059648;28;20107;-81
2022/12/27 03:57:07;;;;;;;3.72;1.20;;;;;;;;;;5058859;28;20028;-82
2022/12/27 03:59:33;;;;;;;3.72;1.15;;;;;;;;;;5058519;28;20024;-81
2022/12/27 04:01:59;;;;;;;3.50;1.10;;;;;;;;;;5076912;28;20520;-81
2022/12/27 04:04:24;;;;;;;3.08;0.85;;;;;;;;;;5076193;28;20024;-82
2022/12/27 04:06:49;;;;;;;6.00;1.20;;;;;;;;;;5076663;28;20462;-81
2022/12/27 04:36:38;;;;;;;4.03;1.00;;;;;;;;;;5076286;28;20031;-81
2022/12/27 04:39:03;;;;;;;2.00;1.08;;;;;;;;;;5076209;28;20111;-80
2022/12/27 04:55:19;;;;;;;3.65;0.77;;;;;;;;;;5076422;28;20038;-80
2022/12/27 04:57:44;;;;;;;6.53;1.30;;;;;;;;;;5057801;28;20482;-81
2022/12/27 05:02:55;;;;;;;3.88;1.20;;;;;;;;;;5080240;28;20055;-81
2022/12/27 05:05:21;;;;;;;4.10;0.90;;;;;;;;;;5079980;28;20020;-81
2022/12/27 05:15:59;;;;;;;0.80;0.80;;;;;;;;;;5079199;28;20516;-80
2022/12/27 05:18:25;;;;;;;1.77;0.88;;;;;;;;;;5079003;28;20028;-82
2022/12/27 05:20:51;;;;;;;2.60;1.08;;;;;;;;;;5079384;28;20040;-80
2022/12/27 05:26:00;;;;;;;4.78;1.23;;;;;;;;;;5079273;28;20031;-80
2022/12/27 05:28:25;;;;;;;1.92;0.80;;;;;;;;;;5078986;28;20052;-81
2022/12/27 05:30:50;;;;;;;2.13;0.90;;;;;;;;;;5078907;28;20070;-81
2022/12/27 05:33:15;;;;;;;3.22;1.52;;;;;;;;;;5060417;28;20056;-81
2022/12/27 05:35:41;;;;;;;1.27;0.80;;;;;;;;;;5078971;28;20041;-81
2022/12/27 05:38:06;;;;;;;3.30;0.70;;;;;;;;;;5079101;28;20031;-83
2022/12/27 05:40:32;;;;;;;2.45;1.10;;;;;;;;;;5061049;28;20501;-80
2022/12/27 05:42:58;;;;;;;3.97;1.33;;;;;;;;;;5078557;28;20081;-81
2022/12/27 05:45:23;;;;;;;4.03;1.00;;;;;;;;;;5078703;28;20028;-82
2022/12/27 05:47:49;;;;;;;1.83;0.68;;;;;;;;;;5078916;28;20047;-81
2022/12/27 05:50:14;;;;;;;2.30;0.98;;;;;;;;;;5078505;28;20078;-81
2022/12/27 05:52:42;;;;;;;4.32;1.10;;;;;;;;;;5060759;28;20043;-82
2022/12/27 05:55:07;;;;;;;3.05;0.80;;;;;;;;;;5078889;28;20020;-82
2022/12/27 05:57:33;;;;;;;1.67;0.85;;;;;;;;;;5078043;28;20039;-82
2022/12/27 05:59:58;;;;;;;2.10;0.80;;;;;;;;;;5079189;28;20024;-81
2022/12/27 06:02:23;;;;;;;1.83;0.70;;;;;;;;;;5079035;28;20028;-81
2022/12/27 06:04:49;;;;;;;3.53;0.80;;;;;;;;;;5078734;28;20034;-83
2022/12/27 06:07:15;;;;;;;3.83;0.97;;;;;;;;;;5078998;28;20137;-81
2022/12/27 06:09:40;;;;;;;2.72;1.00;;;;;;;;;;5078466;28;20352;-81
2022/12/27 06:12:05;;;;;;;3.55;0.88;;;;;;;;;;5078530;28;20059;-80
2022/12/27 06:14:31;;;;;;;1.17;0.60;;;;;;;;;;5078708;28;20467;-81
2022/12/27 06:16:56;;;;;;;2.15;0.90;;;;;;;;;;5078968;28;20036;-81
2022/12/27 06:19:21;;;;;;;2.33;0.70;;;;;;;;;;5060842;28;20031;-81
2022/12/27 06:21:46;;;;;;;1.15;0.85;;;;;;;;;;5078389;28;20060;-81
2022/12/27 06:24:12;;;;;;;2.15;0.88;;;;;;;;;;5059911;28;20028;-80
2022/12/27 06:26:37;;;;;;;2.33;0.80;;;;;;;;;;5078191;28;20071;-81
2022/12/27 06:29:02;;;;;;;2.33;0.80;;;;;;;;;;5059648;28;20032;-81
2022/12/27 06:31:27;;;;;;;5.35;0.75;;;;;;;;;;5077466;28;20028;-81
2022/12/27 06:33:53;;;;;;;2.00;0.63;;;;;;;;;;5077258;28;20035;-80
2022/12/27 06:36:21;;;;;;;1.15;0.45;;;;;;;;;;5077243;28;20059;-80
2022/12/27 06:38:47;;;;;;;3.35;0.63;;;;;;;;;;5076834;28;20024;-80
2022/12/27 06:41:16;;;;;;;1.25;0.70;;;;;;;;;;5058985;28;20089;-81
2022/12/27 06:43:42;;;;;;;3.13;0.90;;;;;;;;;;5058996;28;20021;-80
2022/12/27 06:46:16;;;;;;;0.60;0.60;;;;;;;;;;5077308;28;20032;-80
2022/12/27 06:48:41;;;;;;;2.58;0.73;;;;;;;;;;5077747;28;20033;-81
2022/12/27 06:51:09;;;;;;;4.07;1.02;;;;;;;;;;5058869;28;20035;-81
2022/12/27 06:53:35;;;;;;;2.33;1.00;;;;;;;;;;5077434;28;20024;-81
2022/12/27 06:56:07;;;;;;;7.80;0.93;;;;;;;;;;5077460;28;20027;-81
2022/12/27 06:58:32;;;;;;;4.10;0.90;;;;;;;;;;5058904;28;20508;-79
2022/12/27 07:01:06;;;;;;;2.67;0.60;;;;;;;;;;5058669;28;20029;-80
2022/12/27 07:03:33;;;;;;;3.85;1.05;;;;;;;;;;5058549;28;20083;-80
2022/12/27 07:06:02;;;;;;;2.33;0.65;;;;;;;;;;5076918;28;20036;-82
2022/12/27 07:08:28;;;;;;;4.60;1.08;;;;;;;;;;5077840;28;20078;-80
2022/12/27 07:10:59;;;;;;;1.73;0.73;;;;;;;;;;5077605;28;20021;-81
2022/12/27 07:13:24;;;;;;;1.58;0.85;;;;;;;;;;5076564;28;20063;-79
2022/12/27 07:15:49;;;;;;;1.63;0.80;;;;;;;;;;5076375;28;20033;-80
2022/12/27 07:18:14;;;;;;;2.42;0.90;;;;;;;;;;5076117;28;20035;-81
2022/12/27 07:20:39;;;;;;;3.63;0.80;;;;;;;;;;5076207;28;20032;-81
2022/12/27 07:23:05;;;;;;;1.15;0.63;;;;;;;;;;5075535;28;20028;-80
2022/12/27 07:25:31;;;;;;;3.55;0.80;;;;;;;;;;5075991;28;20031;-81
2022/12/27 07:27:56;;;;;;;3.13;0.80;;;;;;;;;;5058472;28;20024;-81
2022/12/27 07:30:21;;;;;;;8.70;0.70;;;;;;;;;;5058875;28;20489;-80
2022/12/27 07:32:46;;;;;;;5.70;0.88;;;;;;;;;;5059284;28;20758;-81
2022/12/27 07:35:11;;;;;;;2.70;0.88;;;;;;;;;;5059160;28;20024;-82
2022/12/27 07:37:37;;;;;;;2.15;1.02;;;;;;;;;;5059171;28;20024;-80
2022/12/27 07:40:02;;;;;;;4.47;0.93;;;;;;;;;;5076645;28;20036;-81
2022/12/27 07:42:27;;;;;;;3.88;0.85;;;;;;;;;;5058969;28;20261;-81
2022/12/27 07:44:53;;;;;;;1.33;0.65;;;;;;;;;;5058272;28;20090;-81
2022/12/27 07:47:18;;;;;;;5.30;0.63;;;;;;;;;;5077042;28;20078;-82
2022/12/27 07:49:43;;;;;;;4.97;0.70;;;;;;;;;;5058727;28;20115;-82
2022/12/27 07:52:08;;;;;;;1.00;0.70;;;;;;;;;;5077126;28;20114;-81
2022/12/27 07:54:34;;;;;;;3.87;0.70;;;;;;;;;;5077447;28;20041;-81
2022/12/27 07:57:00;;;;;;;6.30;0.90;;;;;;;;;;5077439;28;20271;-82
2022/12/27 07:59:26;;;;;;;4.13;0.85;;;;;;;;;;5077177;28;20025;-80
2022/12/27 08:02:03;;;;;;;4.47;1.08;;;;;;;;;;5076586;28;20028;-81
2022/12/27 08:04:29;;;;;;;3.70;0.80;;;;;;;;;;5075384;28;20028;-81
2022/12/27 08:07:04;;;;;;;2.35;0.73;;;;;;;;;;5076391;28;20466;-81
2022/12/27 08:09:34;;;;;;;3.83;0.90;;;;;;;;;;5076773;28;20394;-82
2022/12/27 08:11:59;;;;;;;1.88;0.68;;;;;;;;;;5059069;28;20054;-81
2022/12/27 08:14:24;;;;;;;4.33;0.80;;;;;;;;;;5057990;28;20070;-81
2022/12/27 08:16:49;;;;;;;4.45;0.80;;;;;;;;;;5076734;28;20306;-81
2022/12/27 08:19:14;;;;;;;3.17;1.08;;;;;;;;;;5076963;28;20024;-81
2022/12/27 08:21:43;;;;;;;4.72;0.90;;;;;;;;;;5058162;28;20393;-81
2022/12/27 08:24:08;;;;;;;3.78;0.98;;;;;;;;;;5076942;28;20149;-81
2022/12/27 08:26:33;;;;;;;4.28;0.93;;;;;;;;;;5076794;28;20529;-81
2022/12/27 08:28:58;;;;;;;3.05;0.80;;;;;;;;;;5076644;28;20496;-81
2022/12/27 08:31:24;;;;;;;4.97;0.90;;;;;;;;;;5077547;28;20033;-81
2022/12/27 08:33:49;;;;;;;3.28;1.00;;;;;;;;;;5080608;28;20765;-81
2022/12/27 08:36:15;;;;;;;2.92;0.80;;;;;;;;;;5062802;28;20482;-81
2022/12/27 08:38:40;;;;;;;1.30;0.73;;;;;;;;;;5081113;28;20492;-81
2022/12/27 08:41:05;;;;;;;4.67;0.87;;;;;;;;;;5062814;28;20029;-81
2022/12/27 08:43:30;;;;;;;2.10;0.70;;;;;;;;;;5080294;28;20288;-81
2022/12/27 08:46:01;;;;;;;3.47;1.10;;;;;;;;;;5080590;28;20052;-81
2022/12/27 08:48:26;;;;;;;1.95;1.00;;;;;;;;;;5080591;28;20021;-81
2022/12/27 08:50:51;;;;;;;2.03;0.88;;;;;;;;;;5079821;28;20450;-83
2022/12/27 08:53:17;;;;;;;2.80;0.82;;;;;;;;;;5080470;28;20025;-82
2022/12/27 08:55:42;;;;;;;1.43;0.60;;;;;;;;;;5080852;28;20086;-81
2022/12/27 08:58:10;;;;;;;3.53;0.90;;;;;;;;;;5080326;28;20257;-81
2022/12/27 09:00:36;;;;;;;4.65;1.02;;;;;;;;;;5079979;28;20284;-81
2022/12/27 09:03:01;;;;;;;1.23;0.82;;;;;;;;;;5079940;28;20021;-81
2022/12/27 09:05:26;;;;;;;5.32;1.02;;;;;;;;;;5062639;28;20032;-81
2022/12/27 09:07:52;;;;;;;5.82;1.00;;;;;;;;;;5061843;28;20023;-81
2022/12/27 09:10:18;;;;;;;1.77;1.13;;;;;;;;;;5079985;28;20020;-81
2022/12/27 09:12:44;;;;;;;2.90;0.95;;;;;;;;;;5079884;28;20440;-82
2022/12/27 09:15:10;;;;;;;2.75;1.00;;;;;;;;;;5079768;28;20016;-81
2022/12/27 09:17:35;;;;;;;4.05;0.98;;;;;;;;;;5079703;28;20020;-81
2022/12/27 09:20:00;;;;;;;3.55;0.90;;;;;;;;;;5078878;28;20052;-81
2022/12/27 09:22:27;;;;;;;1.77;0.90;;;;;;;;;;5079346;28;20051;-81
2022/12/27 09:24:55;;;;;;;3.42;1.05;;;;;;;;;;5080053;28;20429;-82
2022/12/27 09:27:20;;;;;;;6.82;1.10;;;;;;;;;;5080909;28;20021;-81
2022/12/27 09:29:45;;;;;;;2.88;0.90;;;;;;;;;;5079998;28;20484;-82
2022/12/27 09:32:11;;;;;;;1.70;1.10;;;;;;;;;;5080581;28;20032;-82
2022/12/27 09:34:36;;;;;;;1.63;0.70;;;;;;;;;;5080526;28;20385;-81
2022/12/27 09:37:01;;;;;;;2.50;0.90;;;;;;;;;;5080175;28;20050;-82
2022/12/27 09:39:26;;;;;;;1.27;0.70;;;;;;;;;;5080084;28;20029;-82
2022/12/27 09:42:37;;;;;;;4.32;1.00;;;;;;;;;;5080792;28;20025;-82
2022/12/27 09:45:16;;;;;;;1.15;0.77;;;;;;;;;;5001576;28;20072;-82
2022/12/27 09:47:55;;;;;;;3.67;1.10;;;;;;;;;;5058980;28;20412;-81
2022/12/27 09:50:34;;;;;;;3.65;1.00;;;;;;;;;;5080192;28;20428;-82
2022/12/27 09:53:09;;;;;;;3.05;0.90;;;;;;;;;;5080565;28;20369;-82
2022/12/27 09:55:45;;;;;;;4.72;1.00;;;;;;;;;;5062570;28;20078;-82
2022/12/27 09:58:27;;;;;;;2.22;0.85;;;;;;;;;;5062267;28;20055;-81
2022/12/27 10:00:52;;;;;;;3.17;0.80;;;;;;;;;;5080087;28;20063;-80
2022/12/27 10:03:23;;;;;;;1.92;1.00;;;;;;;;;;5078995;28;20024;-81
2022/12/27 10:05:55;;;;;;;4.55;0.93;;;;;;;;;;5061509;28;20021;-82
2022/12/27 10:08:51;;;;;;;8.30;1.10;;;;;;;;;;5079165;28;20036;-81
2022/12/27 10:11:35;;;;;;;2.17;0.80;;;;;;;;;;5079423;28;20025;-81
2022/12/27 10:14:32;;;;;;;3.70;0.90;;;;;;;;;;5061701;28;20100;-83
2022/12/27 10:17:12;;;;;;;3.45;0.63;;;;;;;;;;5074620;28;20409;-82
2022/12/27 10:19:53;;;;;;;2.70;1.05;;;;;;;;;;5079369;28;20032;-81
2022/12/27 10:22:37;;;;;;;1.38;0.70;;;;;;;;;;5079140;28;20052;-81
2022/12/27 10:25:08;;;;;;;4.63;0.88;;;;;;;;;;5079005;28;20500;-82
2022/12/27 10:27:34;;;;;;;3.88;0.85;;;;;;;;;;5079081;28;20063;-81
2022/12/27 10:30:02;;;;;;;3.92;1.08;;;;;;;;;;5061702;28;20032;-81
2022/12/27 10:32:27;;;;;;;1.98;0.77;;;;;;;;;;5061240;28;20021;-82
2022/12/27 10:34:56;;;;;;;4.53;1.08;;;;;;;;;;5078554;28;20366;-81
2022/12/27 10:37:22;;;;;;;2.22;0.88;;;;;;;;;;5078891;28;20452;-79
2022/12/27 10:39:47;;;;;;;4.45;0.80;;;;;;;;;;5060814;28;20061;-81
2022/12/27 10:42:37;;;;;;;1.73;0.77;;;;;;;;;;5060797;28;20028;-82
2022/12/27 10:45:35;;;;;;;2.88;0.82;;;;;;;;;;5061159;28;20025;-81
2022/12/27 10:48:15;;;;;;;1.92;0.80;;;;;;;;;;5060488;28;20024;-81
2022/12/27 10:50:47;;;;;;;5.53;0.90;;;;;;;;;;5078859;28;20396;-81
2022/12/27 10:53:44;;;;;;;3.08;0.70;;;;;;;;;;5077868;28;20046;-80
2022/12/27 10:56:25;;;;;;;1.35;0.80;;;;;;;;;;5057425;28;20086;-83
2022/12/27 10:58:52;;;;;;;2.10;0.73;;;;;;;;;;5078766;28;20020;-83
2022/12/27 11:01:23;;;;;;;2.75;0.90;;;;;;;;;;5078519;28;20500;-81
2022/12/27 11:03:50;;;;;;;5.32;1.15;;;;;;;;;;5077418;28;20036;-81
2022/12/27 11:06:24;;;;;;;2.15;0.88;;;;;;;;;;5078060;28;20028;-80
2022/12/27 11:08:51;;;;;;;3.55;0.90;;;;;;;;;;5077406;28;20039;-81
2022/12/27 11:11:20;;;;;;;4.35;1.10;;;;;;;;;;5078074;28;20033;-81
2022/12/27 11:13:46;;;;;;;1.95;0.60;;;;;;;;;;5077744;28;20032;-81
2022/12/27 11:16:20;;;;;;;8.45;0.90;;;;;;;;;;5077154;28;20024;-80
2022/12/27 11:18:47;;;;;;;;;;;;;;;;;;5060001;28;20050;-81
2022/12/27 11:21:14;;;;;;;2.53;0.70;;;;;;;;;;5077346;28;19908;-81
2022/12/27 11:23:44;;;;;;;2.80;0.82;;;;;;;;;;5077421;28;20040;-82
2022/12/27 11:26:24;;;;;;;3.70;1.02;;;;;;;;;;5078323;28;20064;-81
2022/12/27 11:28:56;;;;;;;2.78;1.00;;;;;;;;;;5059688;28;20102;-81
2022/12/27 11:31:39;;;;;;;4.93;1.00;;;;;;;;;;5059821;28;20050;-81
2022/12/27 11:34:15;;;;;;;2.95;0.70;;;;;;;;;;5059885;28;20333;-81
2022/12/27 11:36:45;;;;;;;1.85;0.70;;;;;;;;;;5077662;28;20020;-81
2022/12/27 11:39:38;;;;;;;2.40;0.80;;;;;;;;;;5078345;28;20028;-81
2022/12/27 11:42:10;;;;;;;4.10;0.90;;;;;;;;;;5060212;28;20024;-81
2022/12/27 11:44:41;;;;;;;2.20;0.90;;;;;;;;;;5077238;28;20028;-83
2022/12/27 11:47:40;;;;;;;2.50;1.05;;;;;;;;;;5077264;28;20462;-81
2022/12/27 11:50:26;;;;;;;2.83;1.00;;;;;;;;;;5077525;28;20028;-82
2022/12/27 11:52:58;;;;;;;4.40;1.40;;;;;;;;;;5077283;28;20374;-81
2022/12/27 11:55:40;;;;;;;1.98;0.60;;;;;;;;;;5076849;28;20028;-82
2022/12/27 11:58:35;;;;;;;3.33;0.80;;;;;;;;;;5077373;28;20024;-81
2022/12/27 12:01:00;;;;;;;;;;;;;;;;;;5066973;28;20524;-82
2022/12/27 12:03:48;;;;;;;4.32;1.10;;;;;;;;;;5077687;28;20373;-81
2022/12/27 12:06:22;;;;;;;2.00;0.90;;;;;;;;;;5059376;28;20035;-81
2022/12/27 12:09:15;;;;;;;3.15;0.93;;;;;;;;;;5081185;28;20028;-80
2022/12/27 12:12:27;;;;;;;5.97;1.60;;;;;;;;;;5082162;28;20032;-81
2022/12/27 12:15:12;;;;;;;2.72;0.70;;;;;;;;;;5082366;28;20083;-80
2022/12/27 12:18:08;;;;;;;1.92;0.82;;;;;;;;;;5063263;28;20021;-81
2022/12/27 12:20:58;;;;;;;1.50;0.80;;;;;;;;;;5081596;28;20036;-81
2022/12/27 12:23:35;;;;;;;4.47;0.77;;;;;;;;;;5063804;28;20074;-81
2022/12/27 12:26:17;;;;;;;2.22;0.80;;;;;;;;;;5083439;28;20086;-82
2022/12/27 12:28:45;;;;;;;3.88;0.95;;;;;;;;;;5064152;28;20024;-81
2022/12/27 12:31:40;;;;;;;3.42;1.00;;;;;;;;;;5081949;28;20032;-81
2022/12/27 12:34:44;;;;;;;3.35;0.70;;;;;;;;;;5081387;28;20490;-80
2022/12/27 12:37:24;;;;;;;4.75;1.00;;;;;;;;;;5064123;28;20386;-81
2022/12/27 12:40:16;;;;;;;2.35;0.90;;;;;;;;;;5064638;28;20024;-81
2022/12/27 12:42:50;;;;;;;1.52;0.80;;;;;;;;;;5081683;28;20024;-83
2022/12/27 12:45:44;;;;;;;0.80;0.55;;;;;;;;;;5063714;28;20087;-82
2022/12/27 12:48:56;;;;;;;1.40;0.70;;;;;;;;;;5081855;28;20089;-82
2022/12/27 12:51:45;;;;;;;1.50;0.80;;;;;;;;;;5019435;28;20029;-80
2022/12/27 12:54:44;;;;;;;2.33;0.98;;;;;;;;;;5019545;28;20029;-80
2022/12/27 12:57:31;;;;;;;4.07;0.77;;;;;;;;;;5054736;28;20059;-80
2022/12/27 13:00:24;;;;;;;3.00;0.80;;;;;;;;;;5084084;28;20474;-82
2022/12/27 13:03:08;;;;;;;1.02;0.52;;;;;;;;;;5081810;28;20417;-81
2022/12/27 13:05:45;;;;;;;2.33;0.90;;;;;;;;;;5081464;28;20055;-81
2022/12/27 13:08:48;;;;;;;1.58;0.82;;;;;;;;;;5082530;28;20104;-83
2022/12/27 13:11:46;;;;;;;5.25;0.95;;;;;;;;;;5081423;28;20027;-81
2022/12/27 13:14:45;;;;;;;2.97;1.13;;;;;;;;;;5080836;28;20079;-81
2022/12/27 13:17:27;;;;;;;5.32;1.40;;;;;;;;;;5081320;28;20150;-81
2022/12/27 13:20:19;;;;;;;3.50;1.50;;;;;;;;;;5061218;28;20024;-81
2022/12/27 13:22:50;;;;;;;1.58;0.82;;;;;;;;;;5080074;28;20028;-81
2022/12/27 13:26:06;;;;;;;4.25;1.50;;;;;;;;;;5080560;28;20021;-82
2022/12/27 13:28:35;;;;;;;3.65;0.90;;;;;;;;;;5018178;28;20546;-81
2022/12/27 13:31:38;;;;;;;1.80;0.70;;;;;;;;;;5018596;28;20033;-81
2022/12/27 13:34:18;;;;;;;2.03;1.00;;;;;;;;;;5050962;28;20040;-81
2022/12/27 13:37:22;;;;;;;3.30;0.93;;;;;;;;;;5079562;28;20031;-80
2022/12/27 13:40:16;;;;;;;3.43;1.00;;;;;;;;;;5079536;28;20025;-81
2022/12/27 13:43:08;;;;;;;7.53;1.02;;;;;;;;;;5078372;28;20504;-81
2022/12/27 13:46:07;;;;;;;3.17;0.98;;;;;;;;;;5079505;28;20028;-81
2022/12/27 13:48:59;;;;;;;2.00;1.00;;;;;;;;;;5079907;28;20035;-80
2022/12/27 13:51:45;;;;;;;5.00;0.93;;;;;;;;;;5061986;28;20050;-82
2022/12/27 13:54:25;;;;;;;2.90;0.82;;;;;;;;;;5079611;28;20031;-81
2022/12/27 13:57:26;;;;;;;5.15;1.05;;;;;;;;;;5080107;28;20074;-80
2022/12/27 14:00:07;;;;;;;2.25;0.75;;;;;;;;;;5079104;28;20485;-81
2022/12/27 14:02:36;;;;;;;3.92;0.90;;;;;;;;;;5062255;28;20116;-81
2022/12/27 14:05:01;;;;;;;2.40;0.98;;;;;;;;;;5060521;28;20111;-81
2022/12/27 14:08:07;;;;;;;1.60;0.83;;;;;;;;;;5078858;28;20048;-81
2022/12/27 14:10:43;;;;;;;3.72;1.20;;;;;;;;;;5060195;28;20028;-81
2022/12/27 14:13:10;;;;;;;1.52;0.80;;;;;;;;;;5059852;28;20017;-82
2022/12/27 14:15:41;;;;;;;1.67;1.00;;;;;;;;;;5061623;28;20480;-82
2022/12/27 14:18:25;;;;;;;3.17;1.02;;;;;;;;;;5078945;28;20102;-81
2022/12/27 14:21:35;;;;;;;3.28;0.93;;;;;;;;;;5078253;28;20051;-81
2022/12/27 14:24:15;;;;;;;1.90;0.90;;;;;;;;;;5078090;28;20073;-81
2022/12/27 14:27:18;;;;;;;3.75;1.05;;;;;;;;;;5078080;28;20020;-81
2022/12/27 14:30:18;;;;;;;2.45;0.70;;;;;;;;;;5076336;28;20025;-80
2022/12/27 14:32:54;;;;;;;4.30;0.88;;;;;;;;;;5076813;28;20031;-80
2022/12/27 14:36:05;;;;;;;3.72;1.10;;;;;;;;;;5059140;28;20025;-82
2022/12/27 14:38:48;;;;;;;8.80;1.38;;;;;;;;;;5076889;28;20094;-82
2022/12/27 14:41:52;;;;;;;3.75;1.20;;;;;;;;;;5077311;28;20425;-80
2022/12/27 14:44:30;;;;;;;2.92;1.08;;;;;;;;;;5077046;28;20496;-82
2022/12/27 14:47:10;;;;;;;1.83;1.10;;;;;;;;;;5059098;28;20028;-81
2022/12/27 14:50:15;;;;;;;2.55;1.02;;;;;;;;;;5059362;28;20063;-81
2022/12/27 14:53:03;;;;;;;3.03;0.98;;;;;;;;;;5077166;28;20091;-80
2022/12/27 14:56:13;;;;;;;3.80;0.90;;;;;;;;;;5060144;28;20028;-81
2022/12/27 14:58:50;;;;;;;4.57;1.23;;;;;;;;;;5061363;28;20121;-81
2022/12/27 15:01:27;;;;;;;2.95;1.20;;;;;;;;;;5077445;28;20031;-82
2022/12/27 15:04:05;;;;;;;1.92;0.90;;;;;;;;;;5077046;28;20036;-80
2022/12/27 15:07:06;;;;;;;2.17;1.00;;;;;;;;;;5077568;28;20117;-81
2022/12/27 15:09:42;;;;;;;3.50;1.52;;;;;;;;;;5077178;28;20062;-80
2022/12/27 15:12:47;;;;;;;2.13;0.95;;;;;;;;;;5077325;28;20032;-80
2022/12/27 15:15:28;;;;;;;3.33;1.10;;;;;;;;;;5076354;28;20037;-80
2022/12/27 15:18:24;;;;;;;3.72;1.10;;;;;;;;;;5060486;28;20519;-80
2022/12/27 15:21:19;;;;;;;3.17;1.00;;;;;;;;;;5058992;28;20092;-81
2022/12/27 15:23:52;;;;;;;4.28;1.20;;;;;;;;;;5077388;28;20020;-81
2022/12/27 15:26:36;;;;;;;1.75;1.00;;;;;;;;;;5077035;28;20028;-80
2022/12/27 15:29:17;;;;;;;1.80;0.87;;;;;;;;;;5058820;28;20397;-80
2022/12/27 15:31:56;;;;;;;3.92;1.38;;;;;;;;;;5058675;28;20074;-80
2022/12/27 15:34:39;;;;;;;2.80;1.10;;;;;;;;;;5076993;28;20090;-81
2022/12/27 15:37:05;;;;;;;1.77;0.93;;;;;;;;;;5077419;28;20111;-82
2022/12/27 15:39:33;;;;;;;3.28;1.20;;;;;;;;;;5059056;28;20472;-81
2022/12/27 15:42:10;;;;;;;1.98;0.82;;;;;;;;;;5076707;28;20017;-81
2022/12/27 15:45:19;;;;;;;7.03;1.17;;;;;;;;;;5077865;28;20114;-80
2022/12/27 15:48:22;;;;;;;2.25;1.00;;;;;;;;;;5077109;28;20043;-79
2022/12/27 15:51:05;;;;;;;6.03;1.38;;;;;;;;;;5076575;28;20055;-80
2022/12/27 15:53:43;;;;;;;3.73;1.13;;;;;;;;;;5076783;28;20103;-81
2022/12/27 15:56:34;;;;;;;3.03;1.30;;;;;;;;;;5058855;28;20031;-80
2022/12/27 15:59:36;;;;;;;4.50;1.38;;;;;;;;;;5076740;28;20092;-81
2022/12/27 16:02:23;;;;;;;7.13;3.10;;;;;;;;;;5077029;28;20367;-81
2022/12/27 16:04:51;;;;;;;5.63;1.30;;;;;;;;;;5076461;28;20115;-81
2022/12/27 16:07:44;;;;;;;4.80;1.42;;;;;;;;;;5077107;28;20025;-81
2022/12/27 16:10:33;;;;;;;4.50;1.42;;;;;;;;;;5076643;28;20028;-81
2022/12/27 16:13:10;;;;;;;2.63;1.70;;;;;;;;;;5077561;28;20380;-81
2022/12/27 16:15:48;;;;;;;4.85;2.03;;;;;;;;;;5077564;28;20078;-81
2022/12/27 16:18:16;;;;;;;5.85;2.70;;;;;;;;;;5077734;28;20028;-81
2022/12/27 16:20:54;;;;;;;10.05;4.13;;;;;;;;;;5077336;28;20385;-80
2022/12/27 16:23:27;;;;;;;10.75;3.83;;;;;;;;;;5076827;28;20063;-80
2022/12/27 16:26:05;;;;;;;13.30;4.32;;;;;;;;;;5077123;28;20020;-79
2022/12/27 16:28:33;;;;;;;12.07;3.60;;;;;;;;;;5076743;28;20044;-80
2022/12/27 16:31:06;;;;;;;21.38;4.80;;;;;;;;;;5076602;28;20432;-81
2022/12/27 16:33:40;;;;;;;37.95;10.85;;;;;;;;;;5058604;28;20107;-80
2022/12/27 16:36:12;;;;;;;;;;;;;;;;;;5077265;28;20024;-82
2022/12/27 16:38:47;;;;;;;21.23;6.13;;;;;;;;;;5076504;28;19912;-80
2022/12/27 16:41:51;;;;;;;19.23;6.43;;;;;;;;;;5058177;28;20112;-80
2022/12/27 16:44:25;;;;;;;16.02;5.47;;;;;;;;;;5066598;28;20075;-80
2022/12/27 16:46:59;;;;;;;8.73;3.92;;;;;;;;;;5076670;28;20031;-80
2022/12/27 16:49:30;;;;;;;11.15;5.30;;;;;;;;;;5076182;28;20032;-81
2022/12/27 16:52:23;;;;;;;18.42;6.78;;;;;;;;;;5057358;28;20028;-81
2022/12/27 16:55:14;;;;;;;10.68;4.65;;;;;;;;;;5078079;28;20060;-80
2022/12/27 16:57:45;;;;;;;11.95;4.32;;;;;;;;;;5061555;28;20028;-80
2022/12/27 17:00:10;;;;;;;8.13;3.47;;;;;;;;;;5079455;28;20024;-79
2022/12/27 17:02:35;;;;;;;8.55;3.60;;;;;;;;;;5078972;28;20032;-78
2022/12/27 17:05:01;;;;;;;12.07;3.50;;;;;;;;;;5078716;28;20024;-79